Terminal Aerodrome Forecast
Issued by NWS

Home | Current Version | Previous Version | Graphics & Text | Print | Product List | Glossary On
Versions: 1 2 3 4 5 6 7 8 9 10 11 12 13 14 15 16 17 18 19 20 21 22
648
FTUS43 KGRB 181742
TAFCWA
TAF
KCWA 181742Z 1818/1918 31010G17KT P6SM BKN025
     FM182000 30009G15KT P6SM BKN035 BKN100
     FM182300 29006KT P6SM SCT035 BKN100
     FM190500 30003KT P6SM SCT150
      TEMPO 1909/1913 5SM BR
     FM191500 27008KT P6SM SCT200=

USA.gov is the U.S. government's official web portal to all federal, state and local government web resources and services.